Time;durP1;ratioP1;P1;durP2;ratioP2;P2;SDS_P1;SDS_P2;PMS_P1;PMS_P2;Temp;Humidity;BMP_temperature;BMP_pressure;BME280_temperature;BME280_humidity;BME280_pressure;Samples;Min_cycle;Max_cycle;Signal;HPM_P1;HPM_P2
2023/04/20 00:01:00;;;;;;;;;;;3.40;99.90;;;;;;5124802;28;19987;-68
2023/04/20 00:03:27;;;;;;;;;;;3.40;99.90;;;;;;5124812;28;19920;-67
2023/04/20 00:05:53;;;;;;;;;;;3.40;99.90;;;;;;5124358;28;19986;-68
2023/04/20 00:08:20;;;;;;;;;;;3.50;99.90;;;;;;5114343;28;19927;-68
2023/04/20 00:10:48;;;;;;;;;;;3.40;99.90;;;;;;5122946;28;19928;-67
2023/04/20 00:13:14;;;;;;;;;;;3.40;99.90;;;;;;5123692;28;19926;-69
2023/04/20 00:15:41;;;;;;;;;;;3.40;99.90;;;;;;5115768;28;19962;-71
2023/04/20 00:18:08;;;;;;;;;;;3.30;99.90;;;;;;5103980;28;19952;-70
2023/04/20 00:20:34;;;;;;;;;;;3.30;99.90;;;;;;5103803;28;20256;-68
2023/04/20 00:23:01;;;;;;;;;;;3.30;99.90;;;;;;5112657;28;19919;-68
2023/04/20 00:25:29;;;;;;;;;;;3.30;99.90;;;;;;5124452;28;19982;-67
2023/04/20 00:27:57;;;;;;;;;;;3.30;99.90;;;;;;5123816;28;19983;-68
2023/04/20 00:30:24;;;;;;;;;;;3.30;99.90;;;;;;5124293;28;19920;-67
2023/04/20 00:32:50;;;;;;;;;;;3.20;99.90;;;;;;5104726;28;19926;-67
2023/04/20 00:35:17;;;;;;;;;;;3.20;99.90;;;;;;5106414;28;19963;-70
2023/04/20 00:37:44;;;;;;;;;;;3.20;99.90;;;;;;5122786;28;19919;-67
2023/04/20 00:40:11;;;;;;;;;;;3.20;99.90;;;;;;5122634;28;19991;-68
2023/04/20 00:42:39;;;;;;;;;;;3.20;99.90;;;;;;5123478;28;19983;-67
2023/04/20 00:45:08;;;;;;;;;;;3.10;99.90;;;;;;5113027;28;19966;-69
2023/04/20 00:47:36;;;;;;;;;;;3.20;99.90;;;;;;5102595;28;20900;-67
2023/04/20 00:50:03;;;;;;;;;;;3.10;99.90;;;;;;5103586;28;19987;-68
2023/04/20 00:52:30;;;;;;;;;;;3.10;99.90;;;;;;5103650;28;19990;-67
2023/04/20 00:54:57;;;;;;;;;;;3.10;99.90;;;;;;5103731;28;19921;-67
2023/04/20 00:57:24;;;;;;;;;;;3.00;99.90;;;;;;5103533;28;19920;-69
2023/04/20 00:59:51;;;;;;;;;;;3.00;99.90;;;;;;5103301;28;20204;-68
2023/04/20 01:02:19;;;;;;;;;;;3.00;99.90;;;;;;5103756;28;19961;-67
2023/04/20 01:04:46;;;;;;;;;;;3.00;99.90;;;;;;5103652;28;19920;-68
2023/04/20 01:07:13;;;;;;;;;;;2.90;99.90;;;;;;5103483;28;19956;-68
2023/04/20 01:09:39;;;;;;;;;;;2.90;99.90;;;;;;5103422;28;19955;-67
2023/04/20 01:12:06;;;;;;;;;;;2.90;99.90;;;;;;5103184;28;20181;-69
2023/04/20 01:14:33;;;;;;;;;;;2.90;99.90;;;;;;5103594;28;19920;-69
2023/04/20 01:16:59;;;;;;;;;;;2.80;99.90;;;;;;5103081;28;20222;-67
2023/04/20 01:19:27;;;;;;;;;;;2.90;99.90;;;;;;5103539;28;19983;-67
2023/04/20 01:21:54;;;;;;;;;;;2.80;99.90;;;;;;5103465;28;19950;-67
2023/04/20 01:24:22;;;;;;;;;;;2.80;99.90;;;;;;5103160;28;20242;-67
2023/04/20 01:26:48;;;;;;;;;;;2.80;99.90;;;;;;5102934;28;19986;-68
2023/04/20 01:29:15;;;;;;;;;;;2.70;99.90;;;;;;5103484;28;19920;-67
2023/04/20 01:31:42;;;;;;;;;;;2.80;99.90;;;;;;5102796;28;20283;-69
2023/04/20 01:34:08;;;;;;;;;;;2.80;99.90;;;;;;5102960;28;19970;-68
2023/04/20 01:36:35;;;;;;;;;;;2.70;99.90;;;;;;5103162;28;19955;-68
2023/04/20 01:39:02;;;;;;;;;;;2.70;99.90;;;;;;5103337;28;19979;-67
2023/04/20 01:41:30;;;;;;;;;;;2.70;99.90;;;;;;5103083;28;19987;-68
2023/04/20 01:43:56;;;;;;;;;;;2.70;99.90;;;;;;5103130;28;19927;-67
2023/04/20 01:46:23;;;;;;;;;;;2.70;99.90;;;;;;5103874;28;19926;-68
2023/04/20 01:48:50;;;;;;;;;;;2.60;99.90;;;;;;5126170;28;20295;-67
2023/04/20 01:51:16;;;;;;;;;;;2.50;99.90;;;;;;5127316;28;19994;-67
2023/04/20 01:53:43;;;;;;;;;;;2.50;99.90;;;;;;5126944;28;20111;-67
2023/04/20 01:56:09;;;;;;;;;;;2.40;99.90;;;;;;5127031;28;19986;-67
2023/04/20 01:58:37;;;;;;;;;;;2.40;99.90;;;;;;5127222;28;19963;-67
2023/04/20 02:01:04;;;;;;;;;;;2.30;99.90;;;;;;5126850;28;20212;-67
2023/04/20 02:03:31;;;;;;;;;;;2.30;99.90;;;;;;5126889;28;19958;-67
2023/04/20 02:05:58;;;;;;;;;;;2.30;99.90;;;;;;5126371;28;19986;-67
2023/04/20 02:08:25;;;;;;;;;;;2.30;99.90;;;;;;5126896;28;19992;-68
2023/04/20 02:10:51;;;;;;;;;;;2.20;99.90;;;;;;5126818;28;19919;-67
2023/04/20 02:13:18;;;;;;;;;;;2.20;99.90;;;;;;5126962;28;19983;-68
2023/04/20 02:15:46;;;;;;;;;;;2.20;99.90;;;;;;5126872;28;19927;-67
2023/04/20 02:18:15;;;;;;;;;;;2.20;99.90;;;;;;5126748;28;19926;-67
2023/04/20 02:20:41;;;;;;;;;;;2.10;99.90;;;;;;5126804;28;19920;-67
2023/04/20 02:23:08;;;;;;;;;;;2.10;99.90;;;;;;5126574;28;19920;-67
2023/04/20 02:25:34;;;;;;;;;;;2.10;99.90;;;;;;5126610;28;19958;-69
2023/04/20 02:28:01;;;;;;;;;;;2.10;99.90;;;;;;5126162;28;19919;-68
2023/04/20 02:30:28;;;;;;;;;;;2.10;99.90;;;;;;5126577;28;19991;-68
2023/04/20 02:32:56;;;;;;;;;;;2.10;99.90;;;;;;5126470;28;19958;-67
2023/04/20 02:35:22;;;;;;;;;;;2.20;99.90;;;;;;5126564;28;19920;-67
2023/04/20 02:37:50;;;;;;;;;;;2.20;99.90;;;;;;5126353;28;19986;-67
2023/04/20 02:40:16;;;;;;;;;;;2.20;99.90;;;;;;5125667;28;20112;-68
2023/04/20 02:42:43;;;;;;;;;;;2.20;99.90;;;;;;5126592;28;19951;-67
2023/04/20 02:45:10;;;;;;;;;;;2.20;99.90;;;;;;5126164;28;20186;-67
2023/04/20 02:47:37;;;;;;;;;;;2.20;99.90;;;;;;5125971;28;19958;-67
2023/04/20 02:50:05;;;;;;;;;;;2.10;99.90;;;;;;5125792;28;19986;-69
2023/04/20 02:52:32;;;;;;;;;;;2.10;99.90;;;;;;5125885;28;19920;-68
2023/04/20 02:54:59;;;;;;;;;;;2.10;99.90;;;;;;5126054;28;19994;-67
2023/04/20 02:57:26;;;;;;;;;;;2.10;99.90;;;;;;5125732;28;19994;-68
2023/04/20 02:59:52;;;;;;;;;;;2.00;99.90;;;;;;5125889;28;20115;-69
2023/04/20 03:02:19;;;;;;;;;;;2.00;99.90;;;;;;5125981;28;19926;-70
2023/04/20 03:04:46;;;;;;;;;;;2.00;99.90;;;;;;5125715;28;20378;-69
2023/04/20 03:07:14;;;;;;;;;;;2.00;99.90;;;;;;5125711;28;19984;-70
2023/04/20 03:09:41;;;;;;;;;;;2.00;99.90;;;;;;5125865;28;19920;-70
2023/04/20 03:12:07;;;;;;;;;;;2.00;99.90;;;;;;5125745;28;20184;-69
2023/04/20 03:14:35;;;;;;;;;;;1.90;99.90;;;;;;5125501;28;19958;-71
2023/04/20 03:17:01;;;;;;;;;;;1.90;99.90;;;;;;5125561;28;19927;-70
2023/04/20 03:19:28;;;;;;;;;;;1.90;99.90;;;;;;5125728;28;19926;-69
2023/04/20 03:21:55;;;;;;;;;;;1.90;99.90;;;;;;5125535;28;19920;-69
2023/04/20 03:24:23;;;;;;;;;;;1.90;99.90;;;;;;5125585;28;19926;-69
2023/04/20 03:26:50;;;;;;;;;;;1.90;99.90;;;;;;5125339;28;19951;-69
2023/04/20 03:29:16;;;;;;;;;;;1.90;99.90;;;;;;5125254;28;19919;-69
2023/04/20 03:31:43;;;;;;;;;;;1.90;99.90;;;;;;5125091;28;20229;-72
2023/04/20 03:34:10;;;;;;;;;;;1.90;99.90;;;;;;5125424;28;20000;-69
2023/04/20 03:36:36;;;;;;;;;;;1.90;99.90;;;;;;5124976;28;19983;-70
2023/04/20 03:39:03;;;;;;;;;;;1.90;99.90;;;;;;5104581;28;20259;-69
2023/04/20 03:41:31;;;;;;;;;;;1.90;99.90;;;;;;5104903;28;19966;-69
2023/04/20 03:43:58;;;;;;;;;;;1.90;99.90;;;;;;5104503;28;20275;-70
2023/04/20 03:46:25;;;;;;;;;;;1.90;99.90;;;;;;5105068;28;19999;-72
2023/04/20 03:48:51;;;;;;;;;;;1.90;99.90;;;;;;5124995;28;20171;-69
2023/04/20 03:51:18;;;;;;;;;;;1.80;99.90;;;;;;5124922;28;19986;-71
2023/04/20 03:53:44;;;;;;;;;;;1.80;99.90;;;;;;5125027;28;19958;-70
2023/04/20 03:56:11;;;;;;;;;;;1.80;99.90;;;;;;5124835;28;20171;-69
2023/04/20 03:58:39;;;;;;;;;;;1.80;99.90;;;;;;5124830;28;19986;-69
2023/04/20 04:01:07;;;;;;;;;;;1.80;99.90;;;;;;5124949;28;19962;-70
2023/04/20 04:03:34;;;;;;;;;;;1.70;99.90;;;;;;5125167;28;19919;-69
2023/04/20 04:06:00;;;;;;;;;;;1.70;99.90;;;;;;5124486;28;19986;-69
2023/04/20 04:08:27;;;;;;;;;;;1.60;99.90;;;;;;5124753;28;19987;-70
2023/04/20 04:10:53;;;;;;;;;;;1.60;99.90;;;;;;5123866;28;19986;-71
2023/04/20 04:13:20;;;;;;;;;;;1.60;99.90;;;;;;5124655;28;19920;-69
2023/04/20 04:15:48;;;;;;;;;;;1.60;99.90;;;;;;5124228;28;20223;-69
2023/04/20 04:18:15;;;;;;;;;;;1.70;99.90;;;;;;5124278;28;20212;-69
2023/04/20 04:20:41;;;;;;;;;;;1.60;99.90;;;;;;5123971;28;19955;-69
2023/04/20 04:23:08;;;;;;;;;;;1.60;99.90;;;;;;5124485;28;19919;-69
2023/04/20 04:25:37;;;;;;;;;;;1.60;99.90;;;;;;5124441;28;19995;-70
2023/04/20 04:28:04;;;;;;;;;;;1.60;99.90;;;;;;5124389;28;20106;-69
2023/04/20 04:30:30;;;;;;;;;;;1.60;99.90;;;;;;5123510;28;19920;-69
2023/04/20 04:32:58;;;;;;;;;;;1.60;99.90;;;;;;5124352;28;19926;-69
2023/04/20 04:35:25;;;;;;;;;;;1.50;99.90;;;;;;5123997;28;19919;-69
2023/04/20 04:37:52;;;;;;;;;;;1.50;99.90;;;;;;5123549;28;19920;-69
2023/04/20 04:40:19;;;;;;;;;;;1.50;99.90;;;;;;5124193;28;19994;-70
2023/04/20 04:42:47;;;;;;;;;;;1.50;99.90;;;;;;5123929;28;20227;-70
2023/04/20 04:45:14;;;;;;;;;;;1.50;99.90;;;;;;5124062;28;19928;-69
2023/04/20 04:47:41;;;;;;;;;;;1.50;99.90;;;;;;5123971;28;19979;-68
2023/04/20 04:50:09;;;;;;;;;;;1.60;99.90;;;;;;5115288;28;19924;-68
2023/04/20 04:52:36;;;;;;;;;;;1.50;99.90;;;;;;5103361;28;20204;-69
2023/04/20 04:55:06;;;;;;;;;;;1.60;99.90;;;;;;5103567;28;20126;-69
2023/04/20 04:57:33;;;;;;;;;;;1.60;99.90;;;;;;5102370;28;19924;-70
2023/04/20 05:00:00;;;;;;;;;;;1.60;99.90;;;;;;5103663;28;19920;-68
2023/04/20 05:02:27;;;;;;;;;;;1.60;99.90;;;;;;5103668;28;19975;-70
2023/04/20 05:04:53;;;;;;;;;;;1.60;99.90;;;;;;5103297;28;19983;-70
2023/04/20 05:07:21;;;;;;;;;;;1.70;99.90;;;;;;5102715;28;19962;-69
2023/04/20 05:09:48;;;;;;;;;;;1.70;99.90;;;;;;5103381;28;20157;-70
2023/04/20 05:12:15;;;;;;;;;;;1.80;99.90;;;;;;5103516;28;19995;-69
2023/04/20 05:14:41;;;;;;;;;;;1.90;99.90;;;;;;5103441;28;19942;-69
2023/04/20 05:17:08;;;;;;;;;;;2.00;99.90;;;;;;5102829;28;19952;-69
2023/04/20 05:19:34;;;;;;;;;;;2.00;99.90;;;;;;5103497;28;19952;-70
2023/04/20 05:22:01;;;;;;;;;;;2.20;99.90;;;;;;5105081;28;19955;-69
2023/04/20 05:24:29;;;;;;;;;;;2.20;99.90;;;;;;5107611;28;20056;-70
2023/04/20 05:26:56;;;;;;;;;;;2.30;99.90;;;;;;5105730;28;19920;-73
2023/04/20 05:29:22;;;;;;;;;;;2.40;99.90;;;;;;5107287;28;19983;-72
2023/04/20 05:31:49;;;;;;;;;;;2.40;99.90;;;;;;5105223;28;19928;-72
2023/04/20 05:34:15;;;;;;;;;;;2.40;99.90;;;;;;5107515;28;20079;-71
2023/04/20 05:36:42;;;;;;;;;;;2.40;99.90;;;;;;5107221;28;19983;-70
2023/04/20 05:39:09;;;;;;;;;;;2.40;99.90;;;;;;5106974;28;19919;-70
2023/04/20 05:41:37;;;;;;;;;;;2.50;99.90;;;;;;5107139;28;19920;-71
2023/04/20 05:44:04;;;;;;;;;;;2.60;99.90;;;;;;5107004;28;19928;-72
2023/04/20 05:46:30;;;;;;;;;;;2.70;99.90;;;;;;5106345;28;19983;-70
2023/04/20 05:48:57;;;;;;;;;;;2.80;99.90;;;;;;5107158;28;19983;-69
2023/04/20 05:51:27;;;;;;;;;;;2.90;99.90;;;;;;5106871;28;20154;-72
2023/04/20 05:53:54;;;;;;;;;;;3.00;99.90;;;;;;5106924;28;19956;-72
2023/04/20 05:56:21;;;;;;;;;;;3.10;99.90;;;;;;5106163;28;19991;-69
2023/04/20 05:58:49;;;;;;;;;;;3.20;99.90;;;;;;5105516;28;19995;-69
2023/04/20 06:01:15;;;;;;;;;;;3.30;99.90;;;;;;5106723;28;20172;-69
2023/04/20 06:03:42;;;;;;;;;;;3.30;99.90;;;;;;5106817;28;19983;-71
2023/04/20 06:06:08;;;;;;;;;;;3.40;99.90;;;;;;5115815;28;20003;-69
2023/04/20 06:08:35;;;;;;;;;;;3.40;99.90;;;;;;5125239;28;19987;-69
2023/04/20 06:11:02;;;;;;;;;;;3.40;99.90;;;;;;5126368;28;19987;-69
2023/04/20 06:13:28;;;;;;;;;;;3.50;99.90;;;;;;5126753;28;19927;-70
2023/04/20 06:15:56;;;;;;;;;;;3.50;99.90;;;;;;5126298;28;20250;-69
2023/04/20 06:18:23;;;;;;;;;;;3.50;99.90;;;;;;5126484;27;19927;-69
2023/04/20 06:20:49;;;;;;;;;;;3.50;99.90;;;;;;5120698;28;19992;-70
2023/04/20 06:23:16;;;;;;;;;;;3.60;99.90;;;;;;5123702;28;20272;-67
2023/04/20 06:25:43;;;;;;;;;;;3.60;99.90;;;;;;5125226;28;19959;-67
2023/04/20 06:28:10;;;;;;;;;;;3.60;99.90;;;;;;5126645;28;20231;-67
2023/04/20 06:30:36;;;;;;;;;;;3.80;99.90;;;;;;5110521;28;20223;-69
2023/04/20 06:33:04;;;;;;;;;;;3.80;99.90;;;;;;5125988;28;19926;-68
2023/04/20 06:35:31;;;;;;;;;;;3.80;99.90;;;;;;5126281;28;19978;-69
2023/04/20 06:38:01;;;;;;;;;;;3.90;99.90;;;;;;5124783;28;19920;-69
2023/04/20 06:40:28;;;;;;;;;;;3.90;99.90;;;;;;5122125;28;20298;-68
2023/04/20 06:42:54;;;;;;;;;;;4.00;99.90;;;;;;5125892;28;19926;-67
2023/04/20 06:45:21;;;;;;;;;;;4.00;99.90;;;;;;5125750;28;19938;-70
2023/04/20 06:47:48;;;;;;;;;;;4.00;99.90;;;;;;5124585;28;19962;-67
2023/04/20 06:50:16;;;;;;;;;;;4.10;99.90;;;;;;5126289;28;19955;-68
2023/04/20 06:52:42;;;;;;;;;;;4.00;99.90;;;;;;5126448;28;20405;-68
2023/04/20 06:55:09;;;;;;;;;;;4.00;99.90;;;;;;5126090;28;19920;-68
2023/04/20 06:57:37;;;;;;;;;;;4.00;99.90;;;;;;5108801;28;20176;-68
2023/04/20 07:00:05;;;;;;;;;;;4.00;99.90;;;;;;5105424;28;19963;-68
2023/04/20 07:02:41;;;;;;;;;;;4.10;99.90;;;;;;5105639;28;19926;-69
2023/04/20 07:05:08;;;;;;;;;;;4.20;99.90;;;;;;5105627;28;19920;-68
2023/04/20 07:07:36;;;;;;;;;;;4.20;99.90;;;;;;5105026;28;19951;-68
2023/04/20 07:10:02;;;;;;;;;;;4.30;99.90;;;;;;5105455;28;19920;-68
2023/04/20 07:12:29;;;;;;;;;;;4.30;99.90;;;;;;5105295;28;19920;-68
2023/04/20 07:14:56;;;;;;;;;;;4.30;99.90;;;;;;5105482;28;19995;-70
2023/04/20 07:17:22;;;;;;;;;;;4.30;99.90;;;;;;5104783;28;19983;-68
2023/04/20 07:19:49;;;;;;;;;;;4.30;99.90;;;;;;5109782;28;19919;-69
2023/04/20 07:22:16;;;;;;;;;;;4.30;99.90;;;;;;5124376;28;19924;-68
2023/04/20 07:24:44;;;;;;;;;;;4.40;99.90;;;;;;5125234;28;19927;-68
2023/04/20 07:27:11;;;;;;;;;;;4.40;99.90;;;;;;5124851;28;19920;-69
2023/04/20 07:29:37;;;;;;;;;;;4.40;99.90;;;;;;5119287;28;19963;-72
2023/04/20 07:32:04;;;;;;;;;;;4.40;99.90;;;;;;5118811;28;19962;-68
2023/04/20 07:34:31;;;;;;;;;;;4.30;99.90;;;;;;5118771;28;19934;-68
2023/04/20 07:36:58;;;;;;;;;;;4.20;99.90;;;;;;5120371;28;19955;-68
2023/04/20 07:39:27;;;;;;;;;;;4.20;99.90;;;;;;5105162;28;19923;-69
2023/04/20 07:41:55;;;;;;;;;;;4.20;99.90;;;;;;5104567;28;20401;-69
2023/04/20 07:44:22;;;;;;;;;;;4.20;99.90;;;;;;5104116;28;20111;-68
2023/04/20 07:46:49;;;;;;;;;;;4.20;99.90;;;;;;5100506;28;20262;-69
2023/04/20 07:49:16;;;;;;;;;;;4.20;99.90;;;;;;5104816;28;19920;-68
2023/04/20 07:51:42;;;;;;;;;;;4.20;99.90;;;;;;5102145;28;19983;-68
2023/04/20 07:54:09;;;;;;;;;;;4.30;99.90;;;;;;5104843;28;19983;-69
2023/04/20 07:56:35;;;;;;;;;;;4.40;99.90;;;;;;5103573;28;20259;-68
2023/04/20 07:59:03;;;;;;;;;;;4.40;99.90;;;;;;5104791;28;19983;-68
2023/04/20 08:01:30;;;;;;;;;;;4.50;99.90;;;;;;5104474;28;19979;-69
2023/04/20 08:03:57;;;;;;;;;;;4.50;99.90;;;;;;5104530;28;19920;-68
2023/04/20 08:06:23;;;;;;;;;;;4.70;99.90;;;;;;5103160;28;20267;-68
2023/04/20 08:08:50;;;;;;;;;;;4.80;99.90;;;;;;5104294;28;19962;-68
2023/04/20 08:11:16;;;;;;;;;;;5.00;99.90;;;;;;5104422;28;19978;-69
2023/04/20 08:13:43;;;;;;;;;;;5.10;99.90;;;;;;5104972;28;20291;-70
2023/04/20 08:16:11;;;;;;;;;;;5.20;99.90;;;;;;5124112;28;19993;-69
2023/04/20 08:18:37;;;;;;;;;;;5.40;99.90;;;;;;5124539;28;19919;-68
2023/04/20 08:21:04;;;;;;;;;;;5.40;99.90;;;;;;5124284;28;20262;-68
2023/04/20 08:23:31;;;;;;;;;;;5.50;99.90;;;;;;5124702;28;20150;-69
2023/04/20 08:25:57;;;;;;;;;;;5.50;99.90;;;;;;5123800;28;20314;-70
2023/04/20 08:28:24;;;;;;;;;;;5.60;99.90;;;;;;5106279;28;20263;-68
2023/04/20 08:30:51;;;;;;;;;;;5.70;99.90;;;;;;5103803;28;19960;-68
2023/04/20 08:33:19;;;;;;;;;;;5.90;99.90;;;;;;5119556;28;19926;-68
2023/04/20 08:35:46;;;;;;;;;;;6.00;99.90;;;;;;5123629;28;20208;-68
2023/04/20 08:38:12;;;;;;;;;;;6.10;99.90;;;;;;5123999;28;19983;-68
2023/04/20 08:40:39;;;;;;;;;;;6.30;99.90;;;;;;5124252;28;19974;-68
2023/04/20 08:43:06;;;;;;;;;;;6.40;99.90;;;;;;5123939;28;19999;-65
2023/04/20 08:45:32;;;;;;;;;;;6.50;99.90;;;;;;5124053;28;19962;-66
2023/04/20 08:48:00;;;;;;;;;;;6.70;99.90;;;;;;5123530;28;19988;-66
2023/04/20 08:50:28;;;;;;;;;;;6.80;99.90;;;;;;5111085;28;19927;-65
2023/04/20 08:52:55;;;;;;;;;;;6.90;99.90;;;;;;5102212;28;19982;-66
2023/04/20 08:55:22;;;;;;;;;;;7.10;99.90;;;;;;5103730;28;19927;-66
2023/04/20 08:57:48;;;;;;;;;;;7.20;99.90;;;;;;5105793;28;19979;-66
2023/04/20 09:00:16;;;;;;;;;;;7.40;99.90;;;;;;5123769;28;19919;-66
2023/04/20 09:02:50;;;;;;;;;;;7.40;99.90;;;;;;5124006;28;19949;-66
2023/04/20 09:05:23;;;;;;;;;;;7.50;99.90;;;;;;5123967;28;20150;-66
2023/04/20 09:07:53;;;;;;;;;;;7.60;99.90;;;;;;5123892;28;19926;-66
2023/04/20 09:10:19;;;;;;;;;;;7.60;99.90;;;;;;5123903;28;19982;-65
2023/04/20 09:12:46;;;;;;;;;;;7.70;99.90;;;;;;5123943;28;20164;-65
2023/04/20 09:15:24;;;;;;;;;;;7.70;99.90;;;;;;5123741;28;19988;-67
2023/04/20 09:17:50;;;;;;;;;;;7.70;99.90;;;;;;5123772;28;20107;-65
2023/04/20 09:20:26;;;;;;;;;;;7.70;99.90;;;;;;5123795;28;19959;-67
2023/04/20 09:22:54;;;;;;;;;;;7.80;99.90;;;;;;5123890;28;19980;-66
2023/04/20 09:25:21;;;;;;;;;;;7.90;99.90;;;;;;5123753;28;19926;-66
2023/04/20 09:27:55;;;;;;;;;;;8.00;99.90;;;;;;5123128;28;19920;-66
2023/04/20 09:30:21;;;;;;;;;;;8.00;99.90;;;;;;5118215;28;20146;-66
2023/04/20 09:32:48;;;;;;;;;;;8.10;99.90;;;;;;5110893;28;19979;-67
2023/04/20 09:35:22;;;;;;;;;;;8.10;99.90;;;;;;5118073;28;20259;-67
2023/04/20 09:37:48;;;;;;;;;;;8.10;99.90;;;;;;5122048;28;19926;-65
2023/04/20 09:40:17;;;;;;;;;;;8.20;99.90;;;;;;5103266;28;19983;-66
2023/04/20 09:42:44;;;;;;;;;;;8.30;99.90;;;;;;5103227;28;19920;-66
2023/04/20 09:45:13;;;;;;;;;;;8.30;99.90;;;;;;5102528;28;20238;-67
2023/04/20 09:47:41;;;;;;;;;;;8.40;99.90;;;;;;5114591;28;20119;-67
2023/04/20 09:50:10;;;;;;;;;;;8.50;99.90;;;;;;5123574;28;19920;-66
2023/04/20 09:52:37;;;;;;;;;;;8.60;99.90;;;;;;5120969;28;19919;-67
2023/04/20 09:55:05;;;;;;;;;;;8.70;99.90;;;;;;5123416;28;19994;-66
2023/04/20 09:57:34;;;;;;;;;;;8.80;99.90;;;;;;5122853;28;19955;-66
2023/04/20 10:00:04;;;;;;;;;;;9.00;99.90;;;;;;5123648;28;19983;-66
2023/04/20 10:02:30;;;;;;;;;;;9.20;99.90;;;;;;5122924;28;19920;-66
2023/04/20 10:04:57;;;;;;;;;;;9.40;99.90;;;;;;5109303;28;19955;-67
2023/04/20 10:07:25;;;;;;;;;;;9.40;99.90;;;;;;5102492;28;20174;-66
2023/04/20 10:10:02;;;;;;;;;;;9.40;99.90;;;;;;5105804;28;19927;-67
2023/04/20 10:12:28;;;;;;;;;;;9.40;99.90;;;;;;5111579;28;19923;-67
2023/04/20 10:14:56;;;;;;;;;;;9.50;99.90;;;;;;5126541;28;20230;-68
2023/04/20 10:17:29;;;;;;;;;;;9.40;99.90;;;;;;5126763;28;19961;-67
2023/04/20 10:19:56;;;;;;;;;;;9.40;99.90;;;;;;5110559;28;20269;-66
2023/04/20 10:22:28;;;;;;;;;;;9.30;99.90;;;;;;5106356;28;19951;-67
2023/04/20 10:24:54;;;;;;;;;;;9.30;99.90;;;;;;5121166;28;19992;-66
2023/04/20 10:27:21;;;;;;;;;;;9.30;99.90;;;;;;5125958;28;19987;-67
2023/04/20 10:29:48;;;;;;;;;;;9.30;99.90;;;;;;5126057;28;19934;-66
2023/04/20 10:32:25;;;;;;;;;;;9.40;99.90;;;;;;5126478;28;19920;-66
2023/04/20 10:35:02;;;;;;;;;;;9.40;99.90;;;;;;5126381;28;20114;-66
2023/04/20 10:37:29;;;;;;;;;;;9.50;99.90;;;;;;5125280;28;20207;-66
2023/04/20 10:39:55;;;;;;;;;;;9.50;99.90;;;;;;5106148;28;19926;-67
2023/04/20 10:42:22;;;;;;;;;;;9.50;99.90;;;;;;5106051;28;19951;-66
2023/04/20 10:44:49;;;;;;;;;;;9.50;99.90;;;;;;5105596;28;19979;-66
2023/04/20 10:47:16;;;;;;;;;;;9.40;99.90;;;;;;5105743;28;20143;-66
2023/04/20 10:49:44;;;;;;;;;;;9.30;99.90;;;;;;5116339;28;19920;-67
2023/04/20 10:52:11;;;;;;;;;;;9.30;99.90;;;;;;5126157;28;19960;-67
2023/04/20 10:54:38;;;;;;;;;;;9.20;99.90;;;;;;5120926;28;19983;-66
2023/04/20 10:57:05;;;;;;;;;;;9.20;99.90;;;;;;5105261;28;19920;-66
2023/04/20 10:59:33;;;;;;;;;;;9.10;99.90;;;;;;5105280;28;19928;-69
2023/04/20 11:02:00;;;;;;;;;;;9.10;99.90;;;;;;5105673;28;19921;-66
2023/04/20 11:04:31;;;;;;;;;;;9.00;99.90;;;;;;5105618;28;20115;-66
2023/04/20 11:07:05;;;;;;;;;;;8.90;99.90;;;;;;5104799;28;19965;-66
2023/04/20 11:09:33;;;;;;;;;;;8.80;99.90;;;;;;5105571;28;19988;-66
2023/04/20 11:12:00;;;;;;;;;;;8.80;99.90;;;;;;5105427;28;19962;-66
2023/04/20 11:14:27;;;;;;;;;;;8.80;99.90;;;;;;5105313;28;20085;-66
2023/04/20 11:16:54;;;;;;;;;;;8.90;99.90;;;;;;5104737;28;19920;-65
2023/04/20 11:19:25;;;;;;;;;;;8.90;99.90;;;;;;5115647;28;19927;-67
2023/04/20 11:21:52;;;;;;;;;;;8.90;99.90;;;;;;5125835;28;20204;-66
2023/04/20 11:24:21;;;;;;;;;;;8.90;99.90;;;;;;5108384;28;19920;-66
2023/04/20 11:26:49;;;;;;;;;;;9.00;99.90;;;;;;5104689;28;19920;-66
2023/04/20 11:29:26;;;;;;;;;;;9.00;99.90;;;;;;5104908;28;19982;-68
2023/04/20 11:31:53;;;;;;;;;;;9.00;99.90;;;;;;5105035;28;19940;-66
2023/04/20 11:34:21;;;;;;;;;;;9.00;99.90;;;;;;5104703;28;19920;-67
2023/04/20 11:36:49;;;;;;;;;;;8.90;99.90;;;;;;5104621;28;19920;-67
2023/04/20 11:39:23;;;;;;;;;;;8.90;99.90;;;;;;5114579;28;19920;-66
2023/04/20 11:41:50;;;;;;;;;;;8.80;99.90;;;;;;5124472;28;19926;-67
2023/04/20 11:44:19;;;;;;;;;;;8.60;99.90;;;;;;5125001;28;19955;-66
2023/04/20 11:46:47;;;;;;;;;;;8.50;99.90;;;;;;5124733;28;19919;-67
2023/04/20 11:49:14;;;;;;;;;;;8.40;99.90;;;;;;5125161;28;19942;-67
2023/04/20 11:51:42;;;;;;;;;;;8.40;99.90;;;;;;5124983;28;20112;-66
2023/04/20 11:54:08;;;;;;;;;;;8.30;99.90;;;;;;5124599;28;19955;-66
2023/04/20 11:56:37;;;;;;;;;;;8.30;99.90;;;;;;5124108;28;20018;-66
2023/04/20 11:59:03;;;;;;;;;;;8.30;99.90;;;;;;5124841;28;19955;-65
2023/04/20 12:01:30;;;;;;;;;;;8.20;99.90;;;;;;5124781;28;19924;-66
2023/04/20 12:03:56;;;;;;;;;;;8.20;99.90;;;;;;5110186;28;19983;-67
2023/04/20 12:06:23;;;;;;;;;;;8.10;99.90;;;;;;5110568;28;19978;-65
2023/04/20 12:08:50;;;;;;;;;;;8.10;99.90;;;;;;5124717;28;20062;-66
2023/04/20 12:11:16;;;;;;;;;;;8.10;99.90;;;;;;5124336;28;19920;-67
2023/04/20 12:13:44;;;;;;;;;;;8.10;99.90;;;;;;5123240;28;19926;-66
2023/04/20 12:16:11;;;;;;;;;;;8.10;99.90;;;;;;5102214;28;19936;-66
2023/04/20 12:18:38;;;;;;;;;;;8.10;99.90;;;;;;5116705;28;19970;-67
2023/04/20 12:21:05;;;;;;;;;;;8.00;99.90;;;;;;5123870;28;19926;-66
2023/04/20 12:23:32;;;;;;;;;;;8.00;99.90;;;;;;5124521;28;19920;-66
2023/04/20 12:25:59;;;;;;;;;;;8.00;99.90;;;;;;5124271;28;19919;-66
2023/04/20 12:28:25;;;;;;;;;;;7.90;99.90;;;;;;5124932;28;19955;-66
2023/04/20 12:30:53;;;;;;;;;;;8.00;99.90;;;;;;5112137;28;20216;-66
2023/04/20 12:33:20;;;;;;;;;;;8.10;99.90;;;;;;5107118;28;19920;-66
2023/04/20 12:35:46;;;;;;;;;;;8.10;99.90;;;;;;5121692;28;20115;-65
2023/04/20 12:38:13;;;;;;;;;;;8.10;99.90;;;;;;5104444;28;20255;-66
2023/04/20 12:40:40;;;;;;;;;;;8.10;99.90;;;;;;5103430;28;19952;-67
2023/04/20 12:43:06;;;;;;;;;;;8.10;99.90;;;;;;5103826;28;19920;-69
2023/04/20 12:45:33;;;;;;;;;;;8.10;99.90;;;;;;5103764;28;19921;-68
2023/04/20 12:48:01;;;;;;;;;;;8.20;99.90;;;;;;5100758;28;19920;-68
2023/04/20 12:50:28;;;;;;;;;;;8.10;99.90;;;;;;5118163;28;19943;-68
2023/04/20 12:52:57;;;;;;;;;;;8.10;99.90;;;;;;5124139;28;19966;-68
2023/04/20 12:55:24;;;;;;;;;;;8.20;99.90;;;;;;5123903;28;19920;-68
2023/04/20 12:57:51;;;;;;;;;;;8.20;99.90;;;;;;5123828;28;19919;-69
2023/04/20 13:00:18;;;;;;;;;;;8.20;99.90;;;;;;5123694;28;20267;-68
2023/04/20 13:02:44;;;;;;;;;;;8.10;99.90;;;;;;5123954;28;19919;-68
2023/04/20 13:05:12;;;;;;;;;;;8.20;99.90;;;;;;5123902;28;19983;-69
2023/04/20 13:07:39;;;;;;;;;;;8.20;99.90;;;;;;5123197;28;19979;-68
2023/04/20 13:10:06;;;;;;;;;;;8.40;99.90;;;;;;5123178;28;19926;-69
2023/04/20 13:12:33;;;;;;;;;;;8.50;99.90;;;;;;5123912;28;19955;-66
2023/04/20 13:14:59;;;;;;;;;;;8.60;99.90;;;;;;5123738;28;19963;-66
2023/04/20 13:17:26;;;;;;;;;;;8.60;99.90;;;;;;5123199;28;19961;-68
2023/04/20 13:19:52;;;;;;;;;;;8.70;99.90;;;;;;5123904;28;19974;-67
2023/04/20 13:22:20;;;;;;;;;;;8.70;99.90;;;;;;5123406;28;20225;-69
2023/04/20 13:24:47;;;;;;;;;;;8.70;99.90;;;;;;5123770;28;19942;-67
2023/04/20 13:27:14;;;;;;;;;;;8.80;99.90;;;;;;5123321;28;19926;-67
2023/04/20 13:29:40;;;;;;;;;;;8.80;99.90;;;;;;5105748;28;19979;-68
2023/04/20 13:32:07;;;;;;;;;;;8.80;99.90;;;;;;5102232;28;19987;-67
2023/04/20 13:34:34;;;;;;;;;;;8.80;99.90;;;;;;5102644;28;19998;-69
2023/04/20 13:37:00;;;;;;;;;;;8.80;99.90;;;;;;5102752;28;20152;-68
2023/04/20 13:39:28;;;;;;;;;;;8.80;99.90;;;;;;5103320;28;20207;-66
2023/04/20 13:41:55;;;;;;;;;;;8.80;99.90;;;;;;5121250;28;19919;-67
2023/04/20 13:44:22;;;;;;;;;;;8.70;99.90;;;;;;5112186;28;19951;-68
2023/04/20 13:46:48;;;;;;;;;;;8.80;99.90;;;;;;5119886;28;19978;-69
2023/04/20 13:49:16;;;;;;;;;;;8.70;99.90;;;;;;5121671;28;19984;-68
2023/04/20 13:51:43;;;;;;;;;;;8.70;99.90;;;;;;5127226;28;19977;-68
2023/04/20 13:54:09;;;;;;;;;;;8.70;99.90;;;;;;5125890;27;20179;-67
2023/04/20 13:56:37;;;;;;;;;;;8.70;99.90;;;;;;5126296;28;19979;-68
2023/04/20 13:59:04;;;;;;;;;;;8.70;99.90;;;;;;5125435;28;19983;-66
2023/04/20 14:01:31;;;;;;;;;;;8.80;99.90;;;;;;5127202;28;19962;-67
2023/04/20 14:03:57;;;;;;;;;;;8.80;99.90;;;;;;5125332;27;19920;-68
2023/04/20 14:06:24;;;;;;;;;;;8.80;99.90;;;;;;5116728;28;20158;-67
2023/04/20 14:08:51;;;;;;;;;;;8.80;99.90;;;;;;5125371;28;19920;-67
2023/04/20 14:11:17;;;;;;;;;;;8.70;99.90;;;;;;5127020;28;19926;-68
2023/04/20 14:13:45;;;;;;;;;;;8.70;99.90;;;;;;5121798;28;20280;-68
2023/04/20 14:16:13;;;;;;;;;;;8.70;99.90;;;;;;5118037;28;19920;-69
2023/04/20 14:18:40;;;;;;;;;;;8.70;99.90;;;;;;5106242;28;19920;-68
2023/04/20 14:21:07;;;;;;;;;;;8.80;99.90;;;;;;5106055;28;19958;-68
2023/04/20 14:23:33;;;;;;;;;;;8.80;99.90;;;;;;5106258;28;19987;-67
2023/04/20 14:26:02;;;;;;;;;;;8.80;99.90;;;;;;5105968;28;19987;-67
2023/04/20 14:28:29;;;;;;;;;;;8.80;99.90;;;;;;5103881;28;20022;-68
2023/04/20 14:30:57;;;;;;;;;;;8.80;99.90;;;;;;5106129;28;19920;-67